Time;durP1;ratioP1;P1;durP2;ratioP2;P2;SDS_P1;SDS_P2;PMS_P1;PMS_P2;Temp;Humidity;BMP_temperature;BMP_pressure;BME280_temperature;BME280_humidity;BME280_pressure;Samples;Min_cycle;Max_cycle;Signal;HPM_P1;HPM_P2
2021/11/06 00:02:24;;;;;;;1.37;0.53;;;17.90;61.10;;;;;;10440259;28;20596;-66
2021/11/06 00:07:46;;;;;;;2.37;0.83;;;17.90;61.10;;;;;;10414266;22;20232;-66
2021/11/06 00:13:10;;;;;;;1.60;0.93;;;17.90;61.20;;;;;;10411919;28;20202;-67
2021/11/06 00:18:32;;;;;;;1.83;0.97;;;17.90;60.90;;;;;;10377110;28;20233;-67
2021/11/06 00:23:54;;;;;;;1.60;1.00;;;17.90;60.70;;;;;;10367303;28;20591;-67
2021/11/06 00:29:18;;;;;;;2.27;0.70;;;17.90;60.70;;;;;;10393594;28;20205;-66
2021/11/06 00:34:40;;;;;;;2.70;0.90;;;17.90;60.80;;;;;;10399352;28;20214;-65
2021/11/06 00:40:03;;;;;;;1.47;0.77;;;17.90;60.80;;;;;;10407738;28;20193;-65
2021/11/06 00:45:27;;;;;;;2.83;1.07;;;17.90;60.90;;;;;;10401069;28;20218;-65
2021/11/06 00:50:49;;;;;;;0.90;0.80;;;17.80;60.90;;;;;;10367100;28;20194;-65
2021/11/06 00:56:11;;;;;;;2.90;1.03;;;17.90;60.90;;;;;;10367350;28;20587;-65
2021/11/06 01:01:36;;;;;;;2.43;0.67;;;17.90;60.60;;;;;;10367471;28;20211;-65
2021/11/06 01:06:58;;;;;;;1.33;0.60;;;17.90;60.50;;;;;;10367145;28;20224;-66
2021/11/06 01:12:21;;;;;;;2.33;0.70;;;17.90;60.40;;;;;;10367444;28;20191;-65
2021/11/06 01:17:45;;;;;;;2.47;0.80;;;17.90;60.50;;;;;;10367421;28;20585;-65
2021/11/06 01:23:08;;;;;;;3.60;1.10;;;17.90;60.40;;;;;;10366635;28;20245;-66
2021/11/06 01:28:30;;;;;;;1.60;0.60;;;17.90;60.30;;;;;;10367965;28;20288;-67
2021/11/06 01:33:54;;;;;;;1.90;0.60;;;17.90;60.40;;;;;;10387302;28;20193;-66
2021/11/06 01:39:16;;;;;;;1.23;0.73;;;17.90;60.50;;;;;;10414399;28;20201;-66
2021/11/06 01:44:38;;;;;;;1.50;0.60;;;17.90;60.60;;;;;;10413852;28;20222;-67
2021/11/06 01:50:03;;;;;;;1.60;0.70;;;17.90;60.70;;;;;;10414178;28;20658;-65
2021/11/06 01:55:25;;;;;;;5.07;1.30;;;17.80;60.70;;;;;;10413894;28;20722;-67
2021/11/06 02:00:48;;;;;;;1.10;0.70;;;17.80;60.60;;;;;;10413510;28;20265;-67
2021/11/06 02:06:11;;;;;;;2.30;0.77;;;17.80;60.50;;;;;;10399996;28;20225;-67
2021/11/06 02:11:35;;;;;;;1.40;0.77;;;17.90;60.60;;;;;;10377432;28;20273;-65
2021/11/06 02:16:57;;;;;;;1.17;0.80;;;17.90;60.40;;;;;;10386805;28;20218;-67
2021/11/06 02:22:21;;;;;;;1.77;0.90;;;17.90;60.40;;;;;;10372606;28;20206;-67
2021/11/06 02:27:44;;;;;;;2.53;0.83;;;17.90;60.30;;;;;;10403593;28;20210;-67
2021/11/06 02:33:06;;;;;;;3.87;0.90;;;17.90;60.30;;;;;;10412261;28;20190;-64
2021/11/06 02:38:30;;;;;;;1.80;0.60;;;17.90;60.30;;;;;;10412864;28;20214;-67
2021/11/06 02:43:53;;;;;;;1.63;0.80;;;17.90;60.40;;;;;;10393623;28;20309;-67
2021/11/06 02:49:15;;;;;;;2.40;0.90;;;17.90;60.30;;;;;;10370695;28;20190;-67
2021/11/06 02:54:39;;;;;;;1.20;0.63;;;17.90;60.20;;;;;;10370932;28;20675;-67
2021/11/06 03:00:01;;;;;;;0.70;0.67;;;17.90;60.30;;;;;;10371427;28;20576;-66
2021/11/06 03:05:23;;;;;;;3.27;0.80;;;17.80;60.30;;;;;;10370857;28;20222;-67
2021/11/06 03:10:47;;;;;;;1.93;0.80;;;17.90;60.40;;;;;;10392442;28;20575;-66
2021/11/06 03:16:10;;;;;;;5.10;0.90;;;17.80;60.30;;;;;;10411460;28;20568;-67
2021/11/06 03:21:33;;;;;;;1.80;0.80;;;17.80;60.30;;;;;;10411204;28;20352;-67
2021/11/06 03:26:56;;;;;;;1.80;0.80;;;17.80;60.30;;;;;;10369476;28;20230;-67
2021/11/06 03:32:18;;;;;;;2.07;0.97;;;17.80;60.40;;;;;;10387198;28;20202;-66
2021/11/06 03:37:41;;;;;;;2.33;1.00;;;17.80;60.20;;;;;;10410636;28;20214;-66
2021/11/06 03:43:04;;;;;;;2.10;0.80;;;17.80;60.20;;;;;;10399184;28;20226;-64
2021/11/06 03:48:28;;;;;;;2.93;1.00;;;17.80;60.20;;;;;;10369228;28;20218;-67
2021/11/06 03:53:50;;;;;;;2.37;0.87;;;17.80;60.20;;;;;;10370111;28;20198;-66
2021/11/06 03:59:13;;;;;;;1.40;0.90;;;17.80;60.10;;;;;;10368171;28;20225;-66
2021/11/06 04:04:35;;;;;;;2.33;1.10;;;17.80;60.10;;;;;;10368768;28;20226;-67
2021/11/06 04:09:58;;;;;;;4.40;1.30;;;17.80;60.10;;;;;;10368657;28;20198;-66
2021/11/06 04:15:21;;;;;;;1.33;0.83;;;17.80;60.10;;;;;;10369359;28;20218;-66
2021/11/06 04:20:44;;;;;;;2.07;1.03;;;17.80;60.10;;;;;;10368291;28;20199;-65
2021/11/06 04:26:07;;;;;;;1.80;0.90;;;17.80;60.20;;;;;;10378198;28;20234;-65
2021/11/06 04:31:30;;;;;;;1.40;0.90;;;17.80;60.30;;;;;;10367678;28;20209;-67
2021/11/06 04:36:52;;;;;;;3.13;1.10;;;17.80;60.20;;;;;;10370697;28;20407;-65
2021/11/06 04:42:14;;;;;;;3.13;0.93;;;17.80;60.10;;;;;;10374994;28;20690;-65
2021/11/06 04:47:39;;;;;;;1.67;0.80;;;17.80;60.10;;;;;;10408628;28;20214;-66
2021/11/06 04:53:01;;;;;;;3.40;1.37;;;17.80;60.00;;;;;;10409273;28;20194;-66
2021/11/06 04:58:23;;;;;;;2.63;1.03;;;17.80;60.00;;;;;;10407977;28;20403;-67
2021/11/06 05:03:47;;;;;;;1.67;1.17;;;17.80;60.00;;;;;;10407483;28;20228;-67
2021/11/06 05:09:09;;;;;;;2.23;0.90;;;17.80;60.00;;;;;;10409268;28;20299;-66
2021/11/06 05:14:32;;;;;;;1.30;1.00;;;17.80;59.80;;;;;;10415682;28;20687;-67
2021/11/06 05:19:57;;;;;;;2.37;1.13;;;17.80;59.80;;;;;;10411950;28;20198;-66
2021/11/06 05:25:19;;;;;;;2.23;1.00;;;17.80;59.80;;;;;;10372522;28;20923;-66
2021/11/06 05:30:42;;;;;;;2.93;1.00;;;17.80;60.00;;;;;;10369657;28;20198;-63
2021/11/06 05:36:06;;;;;;;2.37;1.33;;;17.80;60.00;;;;;;10372352;28;20218;-67
2021/11/06 05:41:28;;;;;;;1.90;1.30;;;17.80;60.00;;;;;;10374472;28;20194;-66
2021/11/06 05:46:50;;;;;;;3.27;1.50;;;17.80;59.80;;;;;;10373784;28;20210;-66
2021/11/06 05:52:14;;;;;;;2.83;1.50;;;17.80;59.50;;;;;;10373088;28;20560;-65
2021/11/06 05:57:36;;;;;;;1.57;1.27;;;17.90;59.00;;;;;;10373221;28;20214;-67
2021/11/06 06:02:58;;;;;;;3.40;1.57;;;18.00;58.70;;;;;;10372800;28;20604;-67
2021/11/06 06:08:22;;;;;;;1.87;1.50;;;18.00;58.60;;;;;;10415275;22;20576;-62
2021/11/06 06:13:45;;;;;;;2.83;1.20;;;18.00;58.60;;;;;;10468044;28;20208;-62
2021/11/06 06:19:07;;;;;;;2.77;1.63;;;18.00;58.60;;;;;;10456195;28;20228;-66
2021/11/06 06:24:30;;;;;;;3.60;1.97;;;18.10;58.40;;;;;;10458821;28;20225;-61
2021/11/06 06:29:52;;;;;;;4.30;1.87;;;18.10;58.20;;;;;;10487621;28;20487;-60
2021/11/06 06:35:17;;;;;;;2.00;1.77;;;18.10;58.20;;;;;;10495518;28;20204;-59
2021/11/06 06:40:40;;;;;;;2.73;1.47;;;18.10;58.30;;;;;;10485663;28;20688;-61
2021/11/06 06:46:03;;;;;;;2.53;1.53;;;18.00;58.70;;;;;;10495171;28;20224;-61
2021/11/06 06:51:25;;;;;;;4.03;1.87;;;18.00;59.00;;;;;;10494704;28;20240;-61
2021/11/06 06:56:48;;;;;;;3.37;1.60;;;18.00;58.90;;;;;;10493989;28;20223;-63
2021/11/06 07:02:10;;;;;;;4.07;2.13;;;18.00;59.50;;;;;;10470161;28;20657;-62
2021/11/06 07:07:33;;;;;;;2.53;1.60;;;17.90;59.40;;;;;;10453842;28;20221;-61
2021/11/06 07:12:56;;;;;;;4.27;1.90;;;17.90;59.50;;;;;;10453197;28;20193;-61
2021/11/06 07:18:19;;;;;;;3.70;1.77;;;17.90;59.60;;;;;;10453229;28;20217;-60
2021/11/06 07:23:41;;;;;;;4.43;2.17;;;17.90;59.80;;;;;;10472825;28;20238;-60
2021/11/06 07:29:04;;;;;;;3.37;2.20;;;17.90;59.80;;;;;;10470534;28;20204;-61
2021/11/06 07:34:27;;;;;;;5.27;2.53;;;17.90;59.50;;;;;;10485162;28;20231;-63
2021/11/06 07:39:49;;;;;;;3.23;1.97;;;18.00;59.20;;;;;;10465432;28;20204;-63
2021/11/06 07:45:15;;;;;;;4.20;2.43;;;18.00;59.10;;;;;;10476746;28;20221;-59
2021/11/06 07:50:37;;;;;;;4.00;2.67;;;18.10;59.10;;;;;;10470367;28;20204;-56
2021/11/06 07:56:00;;;;;;;5.13;2.40;;;18.00;59.00;;;;;;10462354;28;20220;-60
2021/11/06 08:01:23;;;;;;;4.40;2.80;;;18.10;58.90;;;;;;10451533;28;20197;-60
2021/11/06 08:06:45;;;;;;;3.77;3.20;;;18.10;59.50;;;;;;10490727;28;20689;-61
2021/11/06 08:12:08;;;;;;;4.33;2.63;;;18.10;58.90;;;;;;10491678;28;20200;-63
2021/11/06 08:17:32;;;;;;;3.43;2.80;;;18.10;59.00;;;;;;10492229;28;20227;-63
2021/11/06 08:22:54;;;;;;;6.57;3.83;;;18.00;59.30;;;;;;10471769;28;20307;-63
2021/11/06 08:28:17;;;;;;;6.53;4.00;;;18.00;59.50;;;;;;10451040;28;20215;-62
2021/11/06 08:33:40;;;;;;;6.80;4.00;;;18.00;59.70;;;;;;10450637;28;20196;-61
2021/11/06 08:39:03;;;;;;;4.20;3.13;;;17.90;60.40;;;;;;10452334;28;20196;-62
2021/11/06 08:44:26;;;;;;;3.27;2.53;;;17.90;60.00;;;;;;10482055;28;20230;-62
2021/11/06 08:49:49;;;;;;;5.10;3.67;;;17.90;60.00;;;;;;10472455;28;20197;-58
2021/11/06 08:55:12;;;;;;;4.60;3.30;;;17.80;60.20;;;;;;10454483;28;20559;-64
2021/11/06 09:00:38;;;;;;;5.43;3.43;;;17.80;60.30;;;;;;10489973;28;20197;-62
2021/11/06 09:06:01;;;;;;;4.23;3.03;;;17.90;60.10;;;;;;10498121;28;20223;-62
2021/11/06 09:11:24;;;;;;;5.60;3.87;;;17.80;60.10;;;;;;10497433;28;20196;-60
2021/11/06 09:16:46;;;;;;;8.20;3.73;;;17.90;60.10;;;;;;10498664;28;20209;-62
2021/11/06 09:22:10;;;;;;;5.77;3.73;;;17.90;59.90;;;;;;10478068;28;20201;-60
2021/11/06 09:27:33;;;;;;;5.40;2.93;;;17.90;59.90;;;;;;10494581;28;20215;-59
2021/11/06 09:32:55;;;;;;;6.65;3.78;;;17.90;59.90;;;;;;10477605;28;20427;-59
2021/11/06 09:38:19;;;;;;;5.33;3.80;;;18.00;59.90;;;;;;10479640;28;20216;-60
2021/11/06 09:43:41;;;;;;;7.13;4.53;;;17.90;60.30;;;;;;10487065;28;20427;-60
2021/11/06 09:49:04;;;;;;;6.20;3.63;;;18.30;59.40;;;;;;10480376;28;20224;-59
2021/11/06 09:54:27;;;;;;;4.27;3.87;;;18.00;60.30;;;;;;10484584;28;20213;-55
2021/11/06 09:59:50;;;;;;;6.33;4.27;;;17.90;60.90;;;;;;10462344;28;20195;-60
2021/11/06 10:05:14;;;;;;;6.27;3.60;;;17.90;61.30;;;;;;10477047;28;20290;-60
2021/11/06 10:10:38;;;;;;;8.38;5.15;;;17.90;61.50;;;;;;10487284;28;20437;-59
2021/11/06 10:16:01;;;;;;;7.93;4.90;;;18.10;60.80;;;;;;10497233;28;20212;-61
2021/11/06 10:21:25;;;;;;;7.27;4.27;;;18.00;60.70;;;;;;10488805;28;20207;-58
2021/11/06 10:26:49;;;;;;;5.03;3.50;;;18.00;60.70;;;;;;10495924;28;20224;-61
2021/11/06 10:32:11;;;;;;;7.07;4.40;;;18.10;60.40;;;;;;10495840;28;20212;-59
2021/11/06 10:37:34;;;;;;;4.87;3.37;;;18.10;60.30;;;;;;10481962;28;20213;-64
2021/11/06 10:42:59;;;;;;;4.40;3.63;;;18.10;60.30;;;;;;10454858;28;20197;-61
2021/11/06 10:48:22;;;;;;;6.50;4.27;;;18.10;60.20;;;;;;10457096;28;20223;-60
2021/11/06 10:53:50;;;;;;;5.30;3.60;;;18.20;60.00;;;;;;10457807;28;20205;-64
2021/11/06 10:59:19;;;;;;;6.27;3.97;;;18.20;60.50;;;;;;10451525;28;20201;-62
2021/11/06 11:04:41;;;;;;;5.90;4.77;;;18.20;59.90;;;;;;10452485;28;20224;-60
2021/11/06 11:10:24;;;;;;;6.27;4.37;;;18.20;59.80;;;;;;10452704;28;20201;-60
2021/11/06 11:15:50;;;;;;;6.20;4.27;;;18.30;59.80;;;;;;10484320;28;20208;-61
2021/11/06 11:21:16;;;;;;;6.73;4.40;;;18.20;60.00;;;;;;10464500;28;20207;-63
2021/11/06 11:26:40;;;;;;;8.40;4.80;;;18.10;60.20;;;;;;10452453;28;20216;-61
2021/11/06 11:32:05;;;;;;;4.73;3.67;;;18.10;60.40;;;;;;10454436;28;20685;-61
2021/11/06 11:37:27;;;;;;;7.63;4.40;;;18.10;60.70;;;;;;10451403;28;20225;-64
2021/11/06 11:42:57;;;;;;;7.17;4.47;;;18.00;60.80;;;;;;10460675;28;20560;-60
2021/11/06 11:48:23;;;;;;;9.50;4.43;;;18.00;60.80;;;;;;10468465;28;20220;-60
2021/11/06 11:54:00;;;;;;;4.27;3.60;;;18.00;61.00;;;;;;10462571;28;20192;-59
2021/11/06 11:59:31;;;;;;;5.60;3.97;;;18.00;60.90;;;;;;10488729;28;20208;-62
2021/11/06 12:05:30;;;;;;;5.27;3.50;;;18.00;61.10;;;;;;10489772;28;20258;-60
2021/11/06 12:10:56;;;;;;;6.40;4.00;;;18.00;61.10;;;;;;10480947;22;20228;-69
2021/11/06 12:16:21;;;;;;;5.50;3.90;;;17.90;61.30;;;;;;10485181;28;20337;-69
2021/11/06 12:21:45;;;;;;;5.93;3.80;;;17.90;61.20;;;;;;10472438;28;20220;-69
2021/11/06 12:27:10;;;;;;;4.57;3.40;;;17.90;61.30;;;;;;10474716;28;20715;-69
2021/11/06 12:32:34;;;;;;;6.67;3.70;;;17.90;61.30;;;;;;10478694;28;20213;-69
2021/11/06 12:38:00;;;;;;;4.63;3.30;;;17.90;61.20;;;;;;10459401;28;20208;-70
2021/11/06 12:43:25;;;;;;;5.87;3.40;;;17.90;61.00;;;;;;10492996;28;20583;-69
2021/11/06 12:48:47;;;;;;;4.57;3.47;;;17.90;61.00;;;;;;10493234;28;20196;-70
2021/11/06 12:54:15;;;;;;;4.83;3.33;;;17.90;60.90;;;;;;10441284;28;20216;-70
2021/11/06 12:59:46;;;;;;;4.80;3.53;;;18.00;60.70;;;;;;10416193;28;20267;-70
2021/11/06 13:05:08;;;;;;;4.33;3.23;;;18.00;60.60;;;;;;10410419;28;20397;-70
2021/11/06 13:10:31;;;;;;;3.70;2.93;;;18.00;60.60;;;;;;10412931;28;20688;-70
2021/11/06 13:15:55;;;;;;;4.23;3.10;;;18.00;60.70;;;;;;10451389;28;20189;-69
2021/11/06 13:21:17;;;;;;;4.50;3.03;;;18.00;60.50;;;;;;10445802;28;20290;-69
2021/11/06 13:26:42;;;;;;;7.00;3.97;;;18.00;60.60;;;;;;10475941;28;20681;-70
2021/11/06 13:32:05;;;;;;;6.00;3.70;;;18.00;60.60;;;;;;10415373;28;20220;-70
2021/11/06 13:37:27;;;;;;;4.97;3.30;;;18.00;60.50;;;;;;10463031;28;20197;-70
2021/11/06 13:42:50;;;;;;;3.90;2.70;;;17.90;60.50;;;;;;10417723;28;20589;-69
2021/11/06 13:48:20;;;;;;;5.60;3.13;;;18.00;60.70;;;;;;10444375;28;20205;-69
2021/11/06 13:53:54;;;;;;;5.20;2.70;;;17.90;60.60;;;;;;10452261;28;20225;-70
2021/11/06 13:59:19;;;;;;;4.00;3.40;;;17.90;60.70;;;;;;10418786;28;20546;-70
2021/11/06 14:04:44;;;;;;;4.57;3.07;;;17.90;60.80;;;;;;10415648;28;20237;-69
2021/11/06 14:10:08;;;;;;;4.97;3.00;;;17.90;60.80;;;;;;10415301;28;20222;-69
2021/11/06 14:15:35;;;;;;;4.37;2.40;;;17.90;60.70;;;;;;10415406;28;20195;-69
2021/11/06 14:21:00;;;;;;;4.23;2.57;;;17.90;60.60;;;;;;10414445;28;20210;-69
2021/11/06 14:26:27;;;;;;;4.20;2.37;;;17.90;60.60;;;;;;10488643;28;20216;-69
2021/11/06 14:31:54;;;;;;;7.53;2.90;;;18.00;60.40;;;;;;10497795;28;20213;-70
2021/11/06 14:37:17;;;;;;;3.17;2.53;;;18.00;60.70;;;;;;10492055;28;20193;-70
2021/11/06 14:42:42;;;;;;;2.53;2.10;;;18.00;60.10;;;;;;10457528;28;20213;-70
2021/11/06 14:48:09;;;;;;;3.60;2.17;;;18.10;60.80;;;;;;10460840;28;20351;-70
2021/11/06 14:53:31;;;;;;;2.63;2.23;;;18.10;60.00;;;;;;10448647;28;20213;-69
2021/11/06 14:58:53;;;;;;;4.70;2.83;;;18.10;59.60;;;;;;10414153;28;20684;-70
2021/11/06 15:04:16;;;;;;;3.27;2.07;;;18.10;59.40;;;;;;10412832;28;20584;-70
2021/11/06 15:09:39;;;;;;;3.60;2.10;;;18.20;59.50;;;;;;10412937;28;20197;-70
2021/11/06 15:15:01;;;;;;;3.17;2.40;;;18.20;59.30;;;;;;10413112;28;20190;-69
2021/11/06 15:20:26;;;;;;;3.50;2.33;;;18.20;59.20;;;;;;10412856;28;20213;-69
2021/11/06 15:25:49;;;;;;;3.03;2.07;;;18.10;59.20;;;;;;10477323;28;20610;-70
2021/11/06 15:31:11;;;;;;;3.70;2.30;;;18.10;59.40;;;;;;10495171;28;20216;-70
2021/11/06 15:36:35;;;;;;;2.60;2.00;;;18.10;59.60;;;;;;10486478;28;20192;-70
2021/11/06 15:41:57;;;;;;;3.57;2.40;;;18.00;59.80;;;;;;10425692;28;20217;-70
2021/11/06 15:47:19;;;;;;;2.87;1.70;;;18.00;59.90;;;;;;10412172;28;20210;-70
2021/11/06 15:52:42;;;;;;;2.90;1.97;;;18.00;60.00;;;;;;10411616;28;20581;-70
2021/11/06 15:58:05;;;;;;;4.20;2.23;;;18.00;60.20;;;;;;10424657;28;20561;-69
2021/11/06 16:03:27;;;;;;;3.37;2.17;;;17.90;60.10;;;;;;10433711;28;20704;-69
2021/11/06 16:08:50;;;;;;;2.90;1.80;;;17.90;60.00;;;;;;10410194;28;20665;-69
2021/11/06 16:14:12;;;;;;;3.53;2.10;;;17.90;60.20;;;;;;10416002;28;20221;-69
2021/11/06 16:19:35;;;;;;;3.40;2.13;;;17.90;60.10;;;;;;10450827;28;20207;-70
2021/11/06 16:24:58;;;;;;;2.63;2.10;;;18.00;59.80;;;;;;10455533;28;20217;-70
2021/11/06 16:30:21;;;;;;;3.33;1.83;;;18.00;59.60;;;;;;10452016;28;20217;-69
2021/11/06 16:35:43;;;;;;;5.30;2.07;;;18.00;59.60;;;;;;10429825;28;20196;-70
2021/11/06 16:41:07;;;;;;;3.57;2.20;;;18.00;59.40;;;;;;10423500;28;20684;-69
2021/11/06 16:46:29;;;;;;;5.77;2.43;;;18.10;59.40;;;;;;10448313;28;20569;-72
2021/11/06 16:51:51;;;;;;;3.87;2.23;;;18.10;59.70;;;;;;10451455;28;20239;-71
2021/11/06 16:57:15;;;;;;;3.83;2.13;;;18.10;59.00;;;;;;10430598;28;20199;-71
2021/11/06 17:02:37;;;;;;;3.80;2.70;;;18.10;59.00;;;;;;10424160;28;20217;-70
2021/11/06 17:08:16;;;;;;;3.70;2.50;;;18.10;59.00;;;;;;10440944;28;20568;-71
2021/11/06 17:13:39;;;;;;;2.07;1.70;;;18.10;59.10;;;;;;10459360;28;20241;-71
2021/11/06 17:19:01;;;;;;;3.23;1.90;;;18.00;59.20;;;;;;10442132;28;20205;-71
2021/11/06 17:24:24;;;;;;;3.50;1.93;;;18.00;59.40;;;;;;10447346;28;20209;-72
2021/11/06 17:29:47;;;;;;;3.10;1.60;;;18.00;59.60;;;;;;10419601;28;20194;-71
2021/11/06 17:35:10;;;;;;;4.13;2.00;;;17.90;59.70;;;;;;10417174;28;20664;-70
2021/11/06 17:40:32;;;;;;;2.27;1.80;;;18.00;59.80;;;;;;10416101;28;20340;-71
2021/11/06 17:45:56;;;;;;;2.47;1.77;;;17.90;59.70;;;;;;10416822;28;20218;-71
2021/11/06 17:51:23;;;;;;;2.17;1.70;;;17.90;59.80;;;;;;10415716;28;20220;-70
2021/11/06 17:56:45;;;;;;;3.60;1.60;;;17.90;59.70;;;;;;10416840;28;20190;-70
2021/11/06 18:02:10;;;;;;;2.73;1.57;;;17.90;59.40;;;;;;10415954;28;20232;-71
2021/11/06 18:07:32;;;;;;;2.50;1.60;;;18.00;59.30;;;;;;10415816;28;20292;-69
2021/11/06 18:12:54;;;;;;;2.50;1.63;;;18.00;59.20;;;;;;10469951;22;20220;-66
2021/11/06 18:18:18;;;;;;;2.80;1.67;;;18.00;59.10;;;;;;10478888;28;20197;-67
2021/11/06 18:23:40;;;;;;;1.70;1.60;;;18.10;59.00;;;;;;10445386;28;20591;-67
2021/11/06 18:29:02;;;;;;;2.80;2.17;;;18.10;59.40;;;;;;10414650;28;20221;-68
2021/11/06 18:34:26;;;;;;;2.93;1.77;;;18.10;58.70;;;;;;10414976;28;20218;-67
2021/11/06 18:39:49;;;;;;;4.23;2.23;;;18.10;58.70;;;;;;10414060;28;20208;-67
2021/11/06 18:45:15;;;;;;;2.00;1.60;;;18.20;58.60;;;;;;10414575;28;20611;-67
2021/11/06 18:50:39;;;;;;;2.57;1.60;;;18.20;58.60;;;;;;10426571;28;20587;-67
2021/11/06 18:56:01;;;;;;;2.67;1.70;;;18.20;58.60;;;;;;10435905;28;20194;-68
2021/11/06 19:01:23;;;;;;;5.73;1.70;;;18.20;58.60;;;;;;10436495;28;20218;-68
2021/11/06 19:06:47;;;;;;;2.20;1.70;;;18.10;58.60;;;;;;10442632;28;20735;-67
2021/11/06 19:12:09;;;;;;;9.13;1.67;;;18.10;58.70;;;;;;10448472;28;20228;-68
2021/11/06 19:17:31;;;;;;;3.93;1.77;;;18.10;58.60;;;;;;10434394;28;20212;-67
2021/11/06 19:22:55;;;;;;;5.13;1.60;;;18.10;58.70;;;;;;10441446;28;20644;-66
2021/11/06 19:28:18;;;;;;;1.80;1.30;;;18.10;58.80;;;;;;10435321;28;20218;-68
2021/11/06 19:33:41;;;;;;;3.47;1.70;;;18.00;58.90;;;;;;10449032;28;20217;-69
2021/11/06 19:39:05;;;;;;;2.97;1.23;;;18.00;59.00;;;;;;10440242;28;20197;-68
2021/11/06 19:44:28;;;;;;;5.57;1.80;;;18.00;59.10;;;;;;10424077;28;20702;-67
2021/11/06 19:49:50;;;;;;;1.90;1.40;;;18.00;59.20;;;;;;10434912;28;20200;-68
2021/11/06 19:55:14;;;;;;;2.20;1.63;;;18.00;59.40;;;;;;10446077;28;20220;-68
2021/11/06 20:00:37;;;;;;;3.90;1.73;;;18.00;59.40;;;;;;10417892;28;20736;-67
2021/11/06 20:06:00;;;;;;;2.37;1.40;;;18.00;59.60;;;;;;10437780;28;20698;-68
2021/11/06 20:11:23;;;;;;;2.87;1.70;;;18.00;59.60;;;;;;10445894;28;20216;-67
2021/11/06 20:16:46;;;;;;;3.67;1.60;;;18.00;59.50;;;;;;10427653;28;20194;-68
2021/11/06 20:22:08;;;;;;;1.70;1.43;;;18.10;59.20;;;;;;10412089;28;20225;-68
2021/11/06 20:27:32;;;;;;;3.93;2.10;;;18.10;58.90;;;;;;10450402;28;20224;-68
2021/11/06 20:32:54;;;;;;;3.10;1.63;;;18.10;58.80;;;;;;10452075;28;20216;-68
2021/11/06 20:38:16;;;;;;;2.63;1.63;;;18.10;58.80;;;;;;10451155;28;20193;-68
2021/11/06 20:43:40;;;;;;;2.43;1.70;;;18.10;58.80;;;;;;10441928;28;20217;-68
2021/11/06 20:49:04;;;;;;;3.53;1.47;;;18.10;59.00;;;;;;10423577;28;20221;-68
2021/11/06 20:54:27;;;;;;;3.20;1.80;;;18.00;59.20;;;;;;10447681;28;20216;-70
2021/11/06 20:59:50;;;;;;;2.87;1.50;;;18.00;59.40;;;;;;10412891;28;20194;-66
2021/11/06 21:05:13;;;;;;;2.63;1.67;;;18.00;59.50;;;;;;10409863;28;20220;-66
2021/11/06 21:10:39;;;;;;;1.73;1.40;;;18.00;59.70;;;;;;10426419;28;20724;-66
2021/11/06 21:21:41;;;;;;;2.10;1.63;;;17.90;59.90;;;;;;10425439;28;20214;-65
2021/11/06 21:27:04;;;;;;;3.20;1.60;;;17.90;60.00;;;;;;10451061;28;20346;-66
2021/11/06 21:32:28;;;;;;;2.63;1.83;;;17.90;59.80;;;;;;10450518;28;20274;-66
2021/11/06 21:37:54;;;;;;;3.50;1.77;;;17.90;59.50;;;;;;10432695;28;20190;-66
2021/11/06 21:43:16;;;;;;;2.53;1.90;;;18.00;59.70;;;;;;10430644;28;20217;-66
2021/11/06 21:48:42;;;;;;;3.53;1.50;;;18.00;59.90;;;;;;10431703;28;20210;-66
2021/11/06 21:54:04;;;;;;;1.93;1.57;;;17.90;60.00;;;;;;10436020;28;20225;-66
2021/11/06 21:59:26;;;;;;;3.57;1.90;;;17.90;60.10;;;;;;10433244;28;20417;-66
2021/11/06 22:04:50;;;;;;;3.13;1.90;;;17.90;60.30;;;;;;10450118;28;20576;-66
2021/11/06 22:10:13;;;;;;;2.33;1.70;;;17.80;60.40;;;;;;10457228;28;20569;-66
2021/11/06 22:15:37;;;;;;;2.90;2.00;;;17.80;60.60;;;;;;10441355;28;20194;-66
2021/11/06 22:21:01;;;;;;;2.50;2.00;;;17.80;60.80;;;;;;10416136;28;20306;-67
2021/11/06 22:26:23;;;;;;;2.13;1.70;;;17.80;60.60;;;;;;10415093;28;20222;-67
2021/11/06 22:31:46;;;;;;;3.07;1.80;;;17.80;60.40;;;;;;10414993;28;20213;-66
2021/11/06 22:37:09;;;;;;;3.73;2.40;;;17.80;60.50;;;;;;10422701;28;20202;-66
2021/11/06 22:42:32;;;;;;;3.73;2.50;;;17.80;60.60;;;;;;10414666;28;20699;-66
2021/11/06 22:47:59;;;;;;;3.37;2.10;;;17.80;60.50;;;;;;10435832;28;20787;-66
2021/11/06 22:53:23;;;;;;;4.30;2.30;;;17.80;60.30;;;;;;10455277;28;20225;-66
2021/11/06 22:58:46;;;;;;;4.17;1.87;;;17.80;60.30;;;;;;10454933;28;20549;-67
2021/11/06 23:04:13;;;;;;;3.13;1.80;;;17.80;60.40;;;;;;10416431;28;20213;-67
2021/11/06 23:09:37;;;;;;;2.03;1.60;;;17.80;60.60;;;;;;10430721;28;20681;-66
2021/11/06 23:15:02;;;;;;;3.87;1.90;;;17.80;60.70;;;;;;10413734;28;20225;-66
2021/11/06 23:20:26;;;;;;;2.20;1.80;;;17.80;61.10;;;;;;10412524;28;20208;-66
2021/11/06 23:25:50;;;;;;;2.67;1.50;;;17.70;61.00;;;;;;10419265;28;20593;-66
2021/11/06 23:31:12;;;;;;;2.23;1.63;;;17.80;60.90;;;;;;10414715;28;20719;-66
2021/11/06 23:36:34;;;;;;;4.57;1.87;;;17.80;60.70;;;;;;10412321;28;20275;-66
2021/11/06 23:41:58;;;;;;;3.27;1.87;;;17.80;60.70;;;;;;10412262;28;20228;-66
2021/11/06 23:47:20;;;;;;;2.17;1.70;;;17.80;60.80;;;;;;10436959;28;20225;-65
2021/11/06 23:52:47;;;;;;;2.70;1.70;;;17.80;60.80;;;;;;10452049;28;20587;-65
2021/11/06 23:58:14;;;;;;;2.80;1.50;;;17.70;60.90;;;;;;10453441;28;20182;-66
